Time;durP1;ratioP1;P1;durP2;ratioP2;P2;SDS_P1;SDS_P2;PMS_P1;PMS_P2;Temp;Humidity;BMP_temperature;BMP_pressure;BME280_temperature;BME280_humidity;BME280_pressure;Samples;Min_cycle;Max_cycle;Signal;HPM_P1;HPM_P2
2022/09/20 00:01:26;;;;;;;8.63;3.75;;;6.80;99.90;;;6.11;100.00;98431.69;5063309;28;20045;-73
2022/09/20 00:03:56;;;;;;;7.43;3.47;;;6.80;99.90;;;6.00;100.00;98422.34;5042573;28;20062;-73
2022/09/20 00:06:28;;;;;;;8.77;4.05;;;6.70;99.90;;;5.95;100.00;98415.53;5027274;28;20417;-73
2022/09/20 00:08:56;;;;;;;11.17;4.27;;;6.60;99.90;;;5.88;100.00;98414.69;5045131;28;20634;-73
2022/09/20 00:11:27;;;;;;;10.88;3.70;;;6.60;99.90;;;5.68;100.00;98412.34;5044120;28;20378;-73
2022/09/20 00:13:58;;;;;;;11.13;3.15;;;6.50;99.90;;;5.75;100.00;98421.72;5046413;28;20049;-73
2022/09/20 00:16:33;;;;;;;7.38;3.65;;;6.40;99.90;;;5.61;100.00;98408.97;5046301;28;20052;-73
2022/09/20 00:19:04;;;;;;;7.80;3.58;;;6.40;99.90;;;5.81;100.00;98416.47;5063317;28;20090;-73
2022/09/20 00:21:33;;;;;;;8.98;3.10;;;6.40;99.90;;;5.61;100.00;98410.66;5045927;28;20076;-73
2022/09/20 00:24:01;;;;;;;8.93;3.20;;;6.40;99.90;;;5.45;100.00;98413.41;5046650;28;20443;-74
2022/09/20 00:26:28;;;;;;;9.65;3.00;;;6.20;99.90;;;5.50;100.00;98408.22;5045767;28;20075;-74
2022/09/20 00:28:57;;;;;;;9.50;2.72;;;6.20;99.90;;;5.45;100.00;98410.84;5046843;28;20052;-73
2022/09/20 00:31:25;;;;;;;6.88;3.20;;;6.20;99.90;;;5.40;100.00;98410.00;5045408;28;20116;-73
2022/09/20 00:36:43;;;;;;;6.35;2.88;;;6.20;99.90;;;5.37;100.00;98407.44;5047292;28;20089;-73
2022/09/20 00:39:13;;;;;;;10.20;4.05;;;6.10;99.90;;;5.37;100.00;98411.75;5060791;28;20049;-74
2022/09/20 00:41:40;;;;;;;6.82;3.03;;;6.10;99.90;;;5.27;100.00;98404.97;5045220;28;20049;-73
2022/09/20 00:44:50;;;;;;;8.15;3.95;;;6.00;99.90;;;5.39;100.00;98410.88;5047559;28;20080;-73
2022/09/20 00:48:12;;;;;;;7.45;2.88;;;6.00;99.90;;;5.47;100.00;98413.38;5046591;28;20098;-74
2022/09/20 00:50:53;;;;;;;8.10;3.40;;;6.10;99.90;;;5.50;100.00;98407.38;5038719;28;20060;-73
2022/09/20 00:53:37;;;;;;;7.25;3.13;;;6.10;99.90;;;5.36;100.00;98408.34;5043693;28;20082;-74
2022/09/20 00:56:20;;;;;;;8.25;3.00;;;6.10;99.90;;;5.37;100.00;98404.88;5062464;28;20051;-74
2022/09/20 00:59:04;;;;;;;9.05;2.88;;;6.00;99.90;;;5.38;100.00;98405.72;5044040;28;20609;-74
2022/09/20 01:01:31;;;;;;;6.95;3.45;;;6.00;99.90;;;5.35;100.00;98404.03;5027789;28;20054;-74
2022/09/20 01:04:00;;;;;;;6.70;2.63;;;6.00;99.90;;;5.44;100.00;98410.84;5048563;28;20056;-74
2022/09/20 01:06:27;;;;;;;5.97;2.13;;;6.00;99.90;;;5.38;100.00;98404.03;5045961;28;20477;-73
2022/09/20 01:08:57;;;;;;;10.02;3.10;;;6.00;99.90;;;5.35;100.00;98400.63;5060701;28;20052;-74
2022/09/20 01:11:25;;;;;;;6.35;2.78;;;6.00;99.90;;;5.30;100.00;98410.09;5045661;28;20045;-74
2022/09/20 01:13:52;;;;;;;6.93;2.95;;;6.00;99.90;;;5.20;100.00;98397.31;5042742;28;20056;-74
2022/09/20 01:16:20;;;;;;;9.18;3.00;;;5.90;99.90;;;5.32;100.00;98403.22;5046865;28;20693;-74
2022/09/20 01:18:48;;;;;;;6.93;3.60;;;5.90;99.90;;;5.27;100.00;98402.38;5044305;28;20056;-74
2022/09/20 01:21:16;;;;;;;5.78;2.78;;;5.90;99.90;;;5.30;100.00;98407.53;5044639;28;20056;-74
2022/09/20 01:23:55;;;;;;;5.35;2.53;;;5.90;99.90;;;5.18;100.00;98396.47;5043655;28;20044;-74
2022/09/20 01:26:49;;;;;;;5.88;2.80;;;5.80;99.90;;;5.12;100.00;98399.06;5034247;28;20049;-73
2022/09/20 01:29:49;;;;;;;5.13;2.42;;;5.80;99.90;;;5.16;100.00;98397.34;5045944;28;20057;-74
2022/09/20 01:32:22;;;;;;;7.47;2.47;;;5.80;99.90;;;4.99;100.00;98402.59;5048289;28;20094;-74
2022/09/20 01:34:53;;;;;;;;;;;5.70;99.90;;;4.98;100.00;98401.75;5046595;28;20048;-74
2022/09/20 01:37:35;;;;;;;5.63;2.45;;;5.70;99.90;;;4.99;100.00;98402.59;5045230;28;19931;-74
2022/09/20 01:40:37;;;;;;;4.47;2.13;;;5.70;99.90;;;5.01;100.00;98399.16;5046362;28;20045;-74
2022/09/20 01:43:40;;;;;;;8.88;2.67;;;5.70;99.90;;;5.02;100.00;98400.03;5046651;28;20102;-74
2022/09/20 01:46:35;;;;;;;10.85;2.95;;;5.70;99.90;;;4.98;100.00;98398.34;5010819;28;20061;-74
2022/09/20 01:49:32;;;;;;;7.20;2.38;;;5.60;99.90;;;4.96;100.00;98397.47;5046784;28;20194;-73
2022/09/20 01:52:54;;;;;;;8.18;3.03;;;5.60;99.90;;;4.86;100.00;98401.84;5046815;28;20052;-73
2022/09/20 01:55:46;;;;;;;4.65;2.28;;;5.60;99.90;;;4.85;100.00;98402.69;5047722;28;20049;-74
2022/09/20 01:58:53;;;;;;;6.95;1.95;;;5.60;99.90;;;4.77;100.00;98412.19;5045379;28;20048;-74
2022/09/20 02:01:46;;;;;;;6.97;2.10;;;5.50;99.90;;;4.77;100.00;98410.47;5046370;28;20083;-74
2022/09/20 02:04:45;;;;;;;7.80;3.10;;;5.50;99.90;;;4.79;100.00;98413.88;5046520;28;20128;-74
2022/09/20 02:08:08;;;;;;;7.18;2.30;;;5.50;99.90;;;4.82;100.00;98407.88;5045194;28;20418;-73
2022/09/20 02:11:06;;;;;;;10.13;2.20;;;5.40;99.90;;;4.85;100.00;98407.84;5026455;28;20053;-74
2022/09/20 02:14:07;;;;;;;7.90;2.42;;;5.40;99.90;;;4.86;100.00;98409.56;5044588;28;20052;-74
2022/09/20 02:17:12;;;;;;;5.28;2.08;;;5.40;99.90;;;4.55;100.00;98411.44;5046560;28;20057;-74
2022/09/20 02:20:10;;;;;;;8.10;1.70;;;5.40;99.90;;;4.61;100.00;98414.84;5032601;28;20556;-73
2022/09/20 02:22:48;;;;;;;5.65;1.75;;;5.30;99.90;;;4.66;100.00;98413.97;5045819;28;20053;-74
2022/09/20 02:26:04;;;;;;;5.50;1.92;;;5.30;99.90;;;4.69;100.00;98419.09;5043771;28;20045;-74
2022/09/20 02:29:18;;;;;;;5.28;1.90;;;5.30;99.90;;;4.62;100.00;98415.69;5042476;28;20052;-74
2022/09/20 02:32:31;;;;;;;6.82;2.35;;;5.30;99.90;;;4.47;100.00;98419.22;5011410;28;20056;-74
2022/09/20 02:35:12;;;;;;;4.93;1.95;;;5.20;99.90;;;4.49;100.00;98422.59;5042550;28;20056;-74
2022/09/20 02:38:49;;;;;;;9.82;3.22;;;5.20;99.90;;;4.44;100.00;98423.50;5043541;28;20068;-74
2022/09/20 02:41:49;;;;;;;6.53;1.88;;;5.20;99.90;;;4.51;100.00;98427.75;5019063;28;20095;-74
2022/09/20 02:45:17;;;;;;;7.05;1.83;;;5.20;99.90;;;4.49;100.00;98432.88;5046793;28;20056;-74
2022/09/20 02:47:46;;;;;;;5.38;2.35;;;5.40;99.90;;;4.56;100.00;98432.03;5044800;28;20048;-73
2022/09/20 02:50:15;;;;;;;8.98;2.30;;;5.40;99.90;;;4.60;100.00;98430.28;5043258;28;20052;-74
2022/09/20 02:53:05;;;;;;;5.97;2.22;;;5.60;99.90;;;4.68;100.00;98432.81;5040220;28;20074;-74
2022/09/20 02:56:06;;;;;;;4.38;1.63;;;5.60;99.90;;;4.83;100.00;98425.00;5043081;28;20045;-74
2022/09/20 02:58:39;;;;;;;8.57;2.28;;;5.70;99.90;;;4.82;100.00;98434.44;5058886;28;20811;-73
2022/09/20 03:01:16;;;;;;;;;;;5.80;99.90;;;4.86;100.00;98440.44;5046728;28;20504;-73
2022/09/20 03:04:17;;;;;;;4.85;1.92;;;5.80;99.90;;;4.94;100.00;98441.22;5042955;28;19925;-74
2022/09/20 03:06:56;;;;;;;4.82;1.77;;;5.90;99.90;;;5.12;100.00;98442.81;5044848;28;20585;-74
2022/09/20 03:09:29;;;;;;;6.88;1.88;;;6.00;99.90;;;5.14;100.00;98442.81;5043234;28;20080;-74
2022/09/20 03:12:17;;;;;;;4.90;2.35;;;6.10;99.90;;;5.08;100.00;98443.69;5042729;28;20041;-74
2022/09/20 03:15:42;;;;;;;7.72;2.00;;;6.10;99.90;;;5.07;100.00;98443.72;5044751;28;20059;-73
2022/09/20 03:18:20;;;;;;;5.20;2.20;;;6.10;99.90;;;5.26;100.00;98449.59;5020261;28;20056;-74
2022/09/20 03:21:21;;;;;;;9.45;1.83;;;6.10;99.90;;;5.38;100.00;98444.34;5043951;28;20049;-74
2022/09/20 03:24:35;;;;;;;9.38;2.05;;;6.20;99.90;;;5.33;100.00;98452.09;5041734;28;20525;-74
2022/09/20 03:27:39;;;;;;;4.40;1.48;;;6.30;99.90;;;5.42;100.00;98458.91;5045114;28;20051;-75
2022/09/20 03:30:19;;;;;;;7.30;2.38;;;6.30;99.90;;;5.43;100.00;98452.91;5056142;28;20060;-75
2022/09/20 03:33:12;;;;;;;5.70;1.90;;;6.30;99.90;;;5.55;100.00;98457.09;5044748;28;20494;-74
2022/09/20 03:36:16;;;;;;;6.97;2.13;;;6.40;99.90;;;5.59;100.00;98454.47;5042060;28;20137;-74
2022/09/20 03:39:10;;;;;;;7.43;1.88;;;6.50;99.90;;;5.64;100.00;98454.44;5027673;28;20079;-74
2022/09/20 03:42:17;;;;;;;6.15;2.30;;;6.50;99.90;;;5.59;100.00;98451.06;5038481;28;20053;-74
2022/09/20 03:45:38;;;;;;;5.47;2.15;;;6.50;99.90;;;5.33;100.00;98452.09;5059964;28;20105;-74
2022/09/20 03:48:20;;;;;;;7.10;2.45;;;6.50;99.90;;;5.12;100.00;98447.97;5003944;28;20057;-74
2022/09/20 03:51:22;;;;;;;6.35;2.67;;;6.50;99.90;;;5.17;100.00;98445.38;5019465;28;20050;-74
2022/09/20 03:53:58;;;;;;;6.40;2.40;;;6.40;99.90;;;5.34;100.00;98451.25;5066094;28;20071;-74
2022/09/20 03:56:47;;;;;;;9.50;2.17;;;6.30;99.90;;;5.51;100.00;98452.84;5046925;28;20075;-74
2022/09/20 03:59:46;;;;;;;6.82;2.33;;;6.40;99.90;;;5.57;100.00;98455.38;5026939;28;20045;-74
2022/09/20 04:02:40;;;;;;;6.05;2.50;;;6.40;99.90;;;5.58;100.00;98455.34;5045736;28;20094;-74
2022/09/20 04:05:21;;;;;;;6.65;1.95;;;6.50;99.90;;;5.66;100.00;98463.00;5045064;28;20059;-74
2022/09/20 04:08:00;;;;;;;5.97;2.25;;;6.50;99.90;;;5.65;100.00;98458.72;5043182;28;20052;-75
2022/09/20 04:10:48;;;;;;;6.82;2.60;;;6.50;99.90;;;5.41;100.00;98458.06;5044075;28;20044;-74
2022/09/20 04:13:56;;;;;;;7.57;2.63;;;6.50;99.90;;;5.21;100.00;98460.78;5044822;28;20386;-74
2022/09/20 04:16:50;;;;;;;5.53;2.47;;;6.40;99.90;;;5.27;100.00;98462.47;5025335;28;20044;-74
2022/09/20 04:19:44;;;;;;;6.15;1.85;;;6.20;99.90;;;5.37;100.00;98464.09;5039123;28;20498;-74
2022/09/20 04:22:11;;;;;;;5.65;1.77;;;6.20;99.90;;;5.47;100.00;98469.16;5041219;28;20434;-76
2022/09/20 04:25:14;;;;;;;5.35;2.35;;;6.20;99.90;;;5.50;100.00;98461.44;5060853;28;20098;-74
2022/09/20 04:27:59;;;;;;;5.75;1.95;;;6.20;99.90;;;5.46;100.00;98458.03;5047213;28;20051;-74
2022/09/20 04:30:29;;;;;;;5.35;2.15;;;6.20;99.90;;;5.41;100.00;98459.78;5046634;28;20061;-74
2022/09/20 04:33:30;;;;;;;3.50;1.55;;;6.20;99.90;;;5.40;100.00;98465.78;5048155;28;20132;-74
2022/09/20 04:36:36;;;;;;;7.88;1.98;;;6.20;99.90;;;5.37;100.00;98463.25;5027405;28;20048;-74
2022/09/20 04:39:18;;;;;;;9.88;4.60;;;6.30;99.90;;;5.21;100.00;98465.06;5063905;28;20544;-74
2022/09/20 04:42:28;;;;;;;12.18;3.75;;;6.30;99.90;;;5.26;100.00;98470.19;5063509;28;20053;-74
2022/09/20 04:45:50;;;;;;;17.35;5.10;;;6.30;99.90;;;5.10;100.00;98474.59;5060765;28;20059;-74
2022/09/20 04:48:35;;;;;;;12.27;4.38;;;6.40;99.90;;;4.98;100.00;98478.09;5065983;28;20053;-74
2022/09/20 04:51:38;;;;;;;10.77;4.75;;;6.40;99.90;;;5.00;100.00;98487.50;5064700;28;20059;-74
2022/09/20 04:54:30;;;;;;;12.68;5.22;;;6.30;99.90;;;5.14;100.00;98482.28;5064700;28;20509;-75
2022/09/20 04:58:04;;;;;;;11.38;3.90;;;6.30;99.90;;;5.50;100.00;98490.63;5063163;28;20052;-75
2022/09/20 05:01:01;;;;;;;10.00;5.07;;;6.40;99.90;;;5.20;100.00;98505.41;4991000;28;20047;-74
2022/09/20 05:04:14;;;;;;;13.05;5.53;;;6.50;99.90;;;5.27;100.00;98505.34;5065741;28;20048;-75
2022/09/20 05:06:59;;;;;;;14.00;6.50;;;6.40;99.90;;;5.28;100.00;98512.22;5060037;28;20036;-74
2022/09/20 05:10:07;;;;;;;12.10;5.07;;;6.40;99.90;;;5.57;100.00;98517.19;5063403;28;20048;-74
2022/09/20 05:12:53;;;;;;;11.13;4.63;;;6.50;99.90;;;5.69;100.00;98518.81;5034636;28;20057;-74
2022/09/20 05:15:51;;;;;;;9.13;4.20;;;6.60;99.90;;;5.83;100.00;98522.09;5065676;28;20071;-74
2022/09/20 05:18:59;;;;;;;12.05;3.70;;;6.70;99.90;;;5.94;100.00;98540.06;5044549;28;20063;-74
2022/09/20 05:21:55;;;;;;;10.85;3.88;;;6.80;99.90;;;5.99;100.00;98531.44;5065615;28;20505;-74
2022/09/20 05:25:05;;;;;;;13.98;4.30;;;6.90;99.90;;;5.99;100.00;98534.00;5029519;28;20052;-74
2022/09/20 05:28:22;;;;;;;10.75;3.03;;;6.90;99.90;;;6.05;100.00;98530.56;5065713;28;20051;-74
2022/09/20 05:31:15;;;;;;;11.23;3.88;;;7.00;99.90;;;6.02;100.00;98538.28;5067425;28;20064;-74
2022/09/20 05:33:55;;;;;;;11.73;4.03;;;6.90;99.90;;;6.15;100.00;98542.47;5066117;28;20462;-75
2022/09/20 05:36:58;;;;;;;9.93;3.95;;;7.00;99.90;;;6.29;100.00;98544.91;5049540;28;20044;-74
2022/09/20 05:39:58;;;;;;;10.05;4.18;;;7.10;99.90;;;6.38;100.00;98547.41;5045697;28;20059;-74
2022/09/20 05:42:43;;;;;;;12.55;5.30;;;7.20;99.90;;;6.37;100.00;98550.84;5061302;28;20048;-74
2022/09/20 05:45:31;;;;;;;21.25;11.48;;;7.30;99.90;;;6.16;100.00;98545.88;5063597;28;20049;-74
2022/09/20 05:48:17;;;;;;;33.80;13.25;;;7.30;99.90;;;6.16;100.00;98544.19;5065797;28;20144;-74
2022/09/20 05:51:13;;;;;;;31.98;14.48;;;7.30;99.90;;;6.33;100.00;98550.91;5051346;28;20068;-74
2022/09/20 05:54:07;;;;;;;33.35;15.82;;;7.30;99.90;;;6.39;100.00;98554.28;5067373;28;20533;-74
2022/09/20 05:56:57;;;;;;;22.67;10.10;;;7.50;99.90;;;6.26;100.00;98550.09;5066726;28;20175;-74
2022/09/20 05:59:51;;;;;;;12.40;5.57;;;7.50;99.90;;;6.31;100.00;98552.63;5067076;28;20048;-74
2022/09/20 06:02:30;;;;;;;13.82;6.35;;;7.50;99.90;;;6.18;100.00;98557.03;5066107;28;20167;-74
2022/09/20 06:05:14;;;;;;;12.90;4.63;;;7.40;99.90;;;6.45;100.00;98564.53;5065875;28;20506;-74
2022/09/20 06:08:10;;;;;;;16.08;7.05;;;7.50;99.90;;;6.63;100.00;98566.03;5081060;28;20153;-74
2022/09/20 06:11:13;;;;;;;16.63;8.48;;;7.50;99.90;;;6.74;100.00;98565.09;5066025;28;20055;-74
2022/09/20 06:14:17;;;;;;;21.37;10.73;;;7.60;99.90;;;6.97;100.00;98568.25;5047040;28;20052;-74
2022/09/20 06:17:15;;;;;;;18.02;8.63;;;7.70;99.90;;;6.92;100.00;98562.28;5065501;28;20056;-74
2022/09/20 06:20:32;;;;;;;19.92;10.00;;;7.90;99.90;;;6.64;100.00;98564.34;5065094;28;20048;-74
2022/09/20 06:23:02;;;;;;;14.88;8.15;;;8.00;99.90;;;6.69;100.00;98573.72;5048972;28;20056;-74
2022/09/20 06:25:43;;;;;;;14.18;6.95;;;8.00;99.90;;;6.81;100.00;98571.88;5046114;28;20091;-74
2022/09/20 06:28:28;;;;;;;11.07;5.55;;;8.10;99.90;;;7.27;100.00;98569.56;5048809;28;20055;-75
2022/09/20 06:30:56;;;;;;;11.40;5.35;;;8.20;99.90;;;7.61;100.00;98570.84;5078030;28;20083;-74
2022/09/20 06:33:27;;;;;;;10.23;5.25;;;8.40;99.90;;;7.50;100.00;98556.34;5064534;28;20051;-74
2022/09/20 06:42:11;;;;;;;12.27;4.28;;;8.70;99.90;;;7.28;100.00;98560.13;5066126;28;20128;-74
2022/09/20 06:44:40;;;;;;;7.72;3.63;;;8.70;99.90;;;7.26;100.00;98574.78;5048224;28;20067;-74
2022/09/20 06:47:13;;;;;;;5.75;3.50;;;8.70;99.90;;;7.64;100.00;98581.13;5065508;28;20128;-74
2022/09/20 06:49:41;;;;;;;9.65;3.38;;;8.80;99.90;;;7.98;100.00;98584.03;5062260;28;20054;-74
2022/09/20 06:52:14;;;;;;;8.10;3.42;;;9.00;99.90;;;8.15;100.00;98584.63;5065817;28;20044;-74
2022/09/20 06:54:45;;;;;;;5.70;2.65;;;9.20;99.90;;;8.48;100.00;98574.59;5046501;28;20052;-74
2022/09/20 06:57:16;;;;;;;8.02;3.55;;;9.40;99.90;;;8.42;100.00;98572.13;5063768;28;20051;-74
2022/09/20 06:59:44;;;;;;;7.70;2.80;;;9.60;99.90;;;8.44;100.00;98566.91;5041137;28;20052;-74
2022/09/20 07:02:11;;;;;;;7.25;2.72;;;9.80;99.90;;;8.58;100.00;98573.56;5047889;28;20139;-74
2022/09/20 07:04:38;;;;;;;12.27;2.75;;;9.80;99.90;;;8.49;100.00;98565.97;5063480;28;20049;-74
2022/09/20 07:07:07;;;;;;;7.85;2.50;;;9.90;99.90;;;8.79;100.00;98564.53;5049075;28;20055;-74
2022/09/20 07:09:35;;;;;;;7.07;2.80;;;10.00;99.90;;;9.10;100.00;98569.09;5046575;28;20521;-74
2022/09/20 07:12:02;;;;;;;10.93;3.63;;;10.10;99.90;;;9.30;100.00;98578.16;5047085;28;20075;-74
2022/09/20 07:14:29;;;;;;;7.70;2.88;;;10.30;99.90;;;9.14;100.00;98565.53;5080300;28;20044;-73
2022/09/20 07:16:56;;;;;;;6.55;3.00;;;10.30;99.90;;;9.37;100.00;98546.94;5064344;28;20068;-73
2022/09/20 07:19:23;;;;;;;6.22;2.45;;;10.50;99.90;;;9.51;100.00;98543.16;5063843;28;20044;-74
2022/09/20 07:21:50;;;;;;;8.65;2.55;;;10.60;99.90;;;9.72;100.00;98539.22;5062287;28;20051;-74
2022/09/20 07:24:17;;;;;;;7.72;2.22;;;10.80;99.90;;;9.94;100.00;98534.34;5046693;28;20056;-73
2022/09/20 07:26:57;;;;;;;7.88;2.90;;;10.90;99.90;;;9.87;100.00;98523.28;5046447;28;20479;-74
2022/09/20 07:29:24;;;;;;;11.13;2.78;;;10.90;99.90;;;9.87;100.00;98530.22;5064845;28;20051;-73
2022/09/20 07:31:51;;;;;;;8.32;2.45;;;11.00;99.90;;;10.05;100.00;98535.78;5064029;28;20048;-74
2022/09/20 07:34:19;;;;;;;4.60;2.00;;;11.20;99.90;;;10.46;100.00;98540.84;5043920;28;20040;-74
2022/09/20 07:36:47;;;;;;;5.82;2.00;;;11.40;99.90;;;10.43;100.00;98527.94;5064812;28;20069;-74
2022/09/20 07:39:15;;;;;;;9.55;2.00;;;11.50;99.90;;;10.46;100.00;98518.31;5061463;28;20151;-73
2022/09/20 07:41:47;;;;;;;7.30;2.10;;;11.80;99.90;;;10.64;100.00;98508.34;5066446;28;20055;-73
2022/09/20 07:44:23;;;;;;;10.40;1.80;;;11.90;99.90;;;10.83;100.00;98498.28;5045498;28;20569;-74
2022/09/20 07:46:56;;;;;;;6.43;1.50;;;12.00;99.90;;;11.10;100.00;98487.06;5047828;28;20044;-73
2022/09/20 07:49:25;;;;;;;7.05;1.73;;;12.20;99.90;;;11.15;100.00;98489.53;5062101;28;20045;-73
2022/09/20 07:51:53;;;;;;;9.13;2.10;;;12.40;99.90;;;10.98;100.00;98479.66;5066181;28;20153;-74
2022/09/20 07:54:20;;;;;;;6.55;1.73;;;12.40;99.90;;;11.29;100.00;98474.38;5062069;28;20060;-73
2022/09/20 07:56:47;;;;;;;4.63;1.50;;;12.50;99.90;;;11.66;100.00;98470.59;5061655;28;20048;-74
2022/09/20 07:59:15;;;;;;;6.95;1.75;;;12.80;99.90;;;11.72;100.00;98451.31;5062790;28;20048;-74
2022/09/20 08:01:42;;;;;;;5.35;1.30;;;13.00;99.90;;;12.12;100.00;98445.66;5046884;28;20058;-73
2022/09/20 08:04:10;;;;;;;5.40;1.42;;;13.30;99.90;;;11.81;100.00;98442.38;5047755;28;20049;-73
2022/09/20 08:06:42;;;;;;;6.78;1.70;;;13.20;99.90;;;11.95;100.00;98444.53;5068681;28;20517;-73
2022/09/20 08:09:11;;;;;;;9.52;1.95;;;13.10;99.90;;;11.59;100.00;98431.84;5044880;28;20040;-73
2022/09/20 08:11:40;;;;;;;9.73;1.50;;;13.20;99.90;;;12.45;100.00;98432.34;5062485;28;20052;-73
2022/09/20 08:14:13;;;;;;;8.60;1.60;;;13.40;99.90;;;13.13;100.00;98419.34;5061635;28;20048;-73
2022/09/20 08:16:46;;;;;;;8.38;1.30;;;13.90;99.90;;;14.15;100.00;98390.78;5044408;28;20079;-73
2022/09/20 08:19:20;;;;;;;8.50;1.75;;;14.60;99.90;;;14.14;100.00;98356.91;5064375;28;20072;-73
2022/09/20 08:21:49;;;;;;;6.20;1.10;;;15.20;99.90;;;14.03;100.00;98341.72;5059810;28;20111;-73
2022/09/20 08:24:16;;;;;;;8.07;1.75;;;15.30;99.90;;;13.11;100.00;98332.56;5060631;28;20040;-74
2022/09/20 08:26:44;;;;;;;7.07;1.00;;;15.10;99.90;;;13.26;100.00;98333.69;5046084;28;20154;-73
2022/09/20 08:29:12;;;;;;;10.23;1.13;;;14.70;99.90;;;13.05;100.00;98338.88;5062663;28;20063;-73
2022/09/20 08:31:41;;;;;;;10.50;1.65;;;14.50;99.90;;;13.05;100.00;98327.59;5047178;28;20041;-73
2022/09/20 08:34:11;;;;;;;11.82;1.65;;;14.40;99.90;;;13.33;100.00;98337.78;5063034;28;20056;-73
2022/09/20 08:36:45;;;;;;;7.45;1.20;;;14.50;99.90;;;13.26;100.00;98342.34;5060460;28;20057;-73
2022/09/20 08:39:14;;;;;;;6.47;1.15;;;14.90;99.90;;;14.27;100.00;98350.22;5046087;28;20446;-73
2022/09/20 08:42:13;;;;;;;8.43;1.30;;;15.30;99.90;;;14.06;100.00;98331.13;5061813;28;20421;-73
2022/09/20 08:44:56;;;;;;;7.60;1.10;;;15.40;99.90;;;14.29;100.00;98309.22;5063593;28;20064;-73
2022/09/20 08:47:47;;;;;;;5.20;0.80;;;15.50;99.90;;;14.54;100.00;98315.91;5066682;28;20056;-73
2022/09/20 08:50:14;;;;;;;5.45;1.13;;;15.70;99.90;;;14.37;100.00;98308.88;5048033;28;20053;-72
2022/09/20 08:52:48;;;;;;;7.85;1.08;;;15.80;99.90;;;14.28;100.00;98307.53;5050867;28;20059;-73
2022/09/20 08:55:26;;;;;;;9.60;1.40;;;15.90;99.90;;;14.10;100.00;98316.19;5050219;28;20053;-72
2022/09/20 08:57:56;;;;;;;6.93;0.88;;;15.70;99.90;;;14.18;100.00;98322.75;5046651;28;20074;-73
2022/09/20 09:00:29;;;;;;;9.30;0.98;;;15.80;99.90;;;13.69;100.00;98317.09;5067762;28;20481;-72
2022/09/20 09:03:02;;;;;;;8.35;1.40;;;15.70;99.90;;;14.17;100.00;98304.56;5047973;28;20060;-73
2022/09/20 09:05:33;;;;;;;8.32;1.40;;;15.50;99.90;;;13.42;100.00;98305.25;5043992;28;20059;-73
2022/09/20 09:08:08;;;;;;;11.25;1.52;;;15.40;99.90;;;13.74;100.00;98307.31;5065117;28;20100;-73
2022/09/20 09:10:38;;;;;;;3.65;0.73;;;15.40;99.90;;;13.98;100.00;98301.91;5046391;28;20083;-73
2022/09/20 09:13:27;;;;;;;8.73;1.15;;;15.60;99.90;;;13.46;100.00;98299.84;5043667;28;20136;-73
2022/09/20 09:16:09;;;;;;;6.00;1.42;;;15.20;99.90;;;13.49;100.00;98309.28;5048965;28;20052;-73
2022/09/20 09:18:40;;;;;;;4.30;1.02;;;15.20;99.90;;;14.25;100.00;98317.25;5046028;28;20588;-73
2022/09/20 09:21:19;;;;;;;6.35;1.30;;;15.70;99.90;;;14.65;100.00;98298.00;5041519;28;20064;-73
2022/09/20 09:24:14;;;;;;;6.53;1.20;;;16.10;99.90;;;14.47;100.00;98299.69;5048325;28;20052;-72
2022/09/20 09:26:45;;;;;;;9.13;1.00;;;16.30;99.90;;;15.01;100.00;98291.91;5048275;28;20041;-73
2022/09/20 09:29:22;;;;;;;7.43;1.25;;;16.60;99.90;;;14.70;100.00;98290.78;5045596;28;20053;-73
2022/09/20 09:31:51;;;;;;;6.43;1.05;;;16.50;99.90;;;14.51;100.00;98289.94;5044281;28;20056;-72
2022/09/20 09:34:28;;;;;;;9.85;1.50;;;16.50;99.90;;;14.83;100.00;98285.81;5054854;28;20044;-73
2022/09/20 09:36:57;;;;;;;6.13;0.80;;;16.40;99.90;;;15.25;100.00;98282.84;5042629;28;20087;-72
2022/09/20 09:39:36;;;;;;;3.47;0.55;;;16.60;99.90;;;14.85;100.00;98274.38;5062837;28;20056;-73
2022/09/20 09:42:24;;;;;;;6.25;1.10;;;16.80;99.90;;;14.43;100.00;98270.22;5063728;28;20045;-73
2022/09/20 09:44:51;;;;;;;9.35;1.40;;;16.30;99.90;;;13.90;100.00;98280.53;5065181;28;20061;-74
2022/09/20 09:47:27;;;;;;;6.72;1.00;;;15.90;99.90;;;14.10;100.00;98288.31;5065812;28;20041;-73
2022/09/20 09:49:58;;;;;;;5.18;0.70;;;15.70;99.90;;;14.51;100.00;98277.72;5063764;28;20044;-74
2022/09/20 09:52:33;;;;;;;10.13;1.42;;;16.20;99.90;;;14.23;100.00;98270.31;5042204;28;20056;-74
2022/09/20 09:55:02;;;;;;;5.82;0.90;;;;;;;14.38;100.00;98269.59;5025159;28;20045;-73
2022/09/20 09:58:07;;;;;;;6.10;1.23;;;16.30;99.90;;;14.36;100.00;98266.22;5040897;28;20074;-73
2022/09/20 10:00:38;;;;;;;9.82;1.00;;;16.20;99.90;;;14.76;100.00;98258.28;5049419;28;20052;-73
2022/09/20 10:03:36;;;;;;;8.13;1.10;;;16.30;99.90;;;14.80;100.00;98259.81;5049657;28;20045;-74
2022/09/20 10:06:26;;;;;;;6.20;1.40;;;16.40;99.90;;;14.73;100.00;98261.03;5047967;28;20548;-73
2022/09/20 10:09:00;;;;;;;8.52;1.13;;;16.40;99.90;;;15.04;100.00;98263.84;5064640;28;20048;-73
2022/09/20 10:11:57;;;;;;;9.02;1.13;;;16.30;99.90;;;15.15;100.00;98255.47;5065948;28;20049;-73
2022/09/20 10:14:45;;;;;;;8.25;1.15;;;16.50;99.90;;;14.74;100.00;98250.53;5061139;28;20905;-73
2022/09/20 10:17:35;;;;;;;7.57;1.23;;;15.90;99.90;;;14.58;100.00;98254.81;5061339;28;20056;-72
2022/09/20 10:20:30;;;;;;;6.53;1.00;;;16.40;99.90;;;15.54;100.00;98240.44;5062371;28;20048;-73
2022/09/20 10:23:15;;;;;;;5.05;1.33;;;16.40;99.90;;;15.24;100.00;98244.53;5061686;28;20056;-72
2022/09/20 10:26:21;;;;;;;6.13;1.10;;;16.70;99.90;;;14.77;100.00;98237.28;5062150;28;20366;-72
2022/09/20 10:29:39;;;;;;;5.82;1.23;;;16.80;99.90;;;15.82;100.00;98224.13;5063057;28;20048;-72
2022/09/20 10:32:31;;;;;;;5.68;1.05;;;16.70;99.90;;;16.03;100.00;98211.66;5043449;28;20040;-72
2022/09/20 10:35:42;;;;;;;4.13;0.60;;;17.10;99.90;;;15.06;100.00;98217.56;5040795;28;20044;-72
2022/09/20 10:38:22;;;;;;;2.55;0.50;;;17.50;99.90;;;15.35;100.00;98212.63;5062749;28;20417;-72
2022/09/20 10:44:17;;;;;;;5.78;0.57;;;17.30;99.90;;;15.06;100.00;98206.25;5060649;28;20070;-72
2022/09/20 10:47:12;;;;;;;3.55;0.50;;;17.40;99.90;;;15.81;100.00;98198.91;5062444;28;20041;-72
2022/09/20 10:50:17;;;;;;;3.67;0.50;;;17.40;99.90;;;15.97;100.00;98199.75;5057966;28;20524;-74
2022/09/20 10:53:11;;;;;;;4.00;0.57;;;17.30;99.90;;;15.22;100.00;98209.78;5061261;28;20075;-76
2022/09/20 10:56:18;;;;;;;4.75;0.60;;;16.70;99.90;;;15.20;100.00;98216.84;5062314;28;20063;-75
2022/09/20 10:59:03;;;;;;;3.58;0.50;;;16.60;99.90;;;14.70;100.00;98222.00;5040150;28;20390;-75
2022/09/20 11:02:32;;;;;;;1.65;0.40;;;16.50;99.90;;;13.84;100.00;98224.25;5057433;28;20516;-74
2022/09/20 11:05:39;;;;;;;5.90;0.55;;;15.50;99.90;;;13.72;100.00;98236.09;5013549;28;20083;-75
2022/09/20 11:08:21;;;;;;;5.97;0.63;;;15.20;99.90;;;13.12;100.00;98249.09;5044579;28;20053;-74
2022/09/20 11:11:11;;;;;;;5.13;0.60;;;14.60;99.90;;;13.30;100.00;98238.84;5042510;28;20086;-75
2022/09/20 11:14:18;;;;;;;4.28;0.75;;;14.50;99.90;;;13.59;100.00;98246.25;5059564;28;20052;-76
2022/09/20 11:17:08;;;;;;;3.55;0.73;;;14.60;99.90;;;13.24;100.00;98246.88;5039117;28;20155;-75
2022/09/20 11:19:49;;;;;;;8.50;2.00;;;14.60;99.90;;;12.69;100.00;98266.47;5042839;28;20068;-78
2022/09/20 11:22:35;;;;;;;7.72;2.13;;;14.30;99.90;;;12.70;100.00;98278.63;5057955;28;20143;-75
2022/09/20 11:25:13;;;;;;;5.50;1.90;;;14.10;99.90;;;12.76;100.00;98293.13;5039102;28;20065;-76
2022/09/20 11:28:32;;;;;;;7.28;1.60;;;13.90;99.90;;;12.92;100.00;98286.38;5062323;28;20422;-77
2022/09/20 11:31:25;;;;;;;5.03;1.67;;;13.90;99.90;;;12.86;100.00;98289.25;5046286;28;20048;-76
2022/09/20 11:34:08;;;;;;;6.53;1.63;;;13.90;99.90;;;12.74;100.00;98295.78;5044303;28;20110;-76
2022/09/20 11:36:51;;;;;;;7.10;1.45;;;14.10;99.90;;;13.31;100.00;98297.88;5039998;28;20071;-75
2022/09/20 11:39:35;;;;;;;9.18;1.08;;;14.30;99.90;;;14.12;100.00;98278.66;5063902;28;20082;-75
2022/09/20 11:42:04;;;;;;;7.40;1.70;;;15.10;99.90;;;14.28;100.00;98273.59;5060140;28;20421;-75
2022/09/20 11:44:39;;;;;;;6.90;2.10;;;15.40;99.90;;;14.50;100.00;98272.56;5046779;28;20421;-75
2022/09/20 11:47:26;;;;;;;8.05;1.77;;;15.40;99.90;;;14.40;100.00;98261.72;5049415;28;20058;-75